Time;durP1;ratioP1;P1;durP2;ratioP2;P2;SDS_P1;SDS_P2;PMS_P1;PMS_P2;Temp;Humidity;BMP_temperature;BMP_pressure;BME280_temperature;BME280_humidity;BME280_pressure;Samples;Min_cycle;Max_cycle;Signal;HPM_P1;HPM_P2
2020/12/22 00:00:11;;;;;;;13.40;9.20;;;;;;;;;;5078574;28;20475;-73
2020/12/22 00:02:46;;;;;;;9.70;7.97;;;;;;;;;;5078418;28;20747;-73
2020/12/22 00:05:16;;;;;;;11.40;8.90;;;;;;;;;;5078681;28;20492;-74
2020/12/22 00:07:50;;;;;;;11.87;8.87;;;;;;;;;;5078474;28;20474;-73
2020/12/22 00:10:23;;;;;;;15.03;9.97;;;;;;;;;;5096426;28;20563;-73
2020/12/22 00:12:51;;;;;;;14.07;8.50;;;;;;;;;;5099103;28;20802;-73
2020/12/22 00:15:19;;;;;;;11.50;8.60;;;;;;;;;;5098866;28;20468;-73
2020/12/22 00:17:47;;;;;;;14.70;10.20;;;;;;;;;;5098183;28;20456;-73
2020/12/22 00:20:17;;;;;;;10.43;8.70;;;;;;;;;;5098803;28;20558;-72
2020/12/22 00:22:47;;;;;;;11.37;8.07;;;;;;;;;;5098308;28;20460;-72
2020/12/22 00:25:15;;;;;;;10.47;8.00;;;;;;;;;;5098289;28;20498;-74
2020/12/22 00:27:44;;;;;;;10.47;8.43;;;;;;;;;;5098592;28;20444;-73
2020/12/22 00:30:12;;;;;;;13.70;9.97;;;;;;;;;;5097156;28;20464;-73
2020/12/22 00:32:41;;;;;;;12.30;10.10;;;;;;;;;;5098582;28;20467;-73
2020/12/22 00:35:09;;;;;;;12.83;9.17;;;;;;;;;;5097993;28;20474;-73
2020/12/22 00:37:37;;;;;;;15.17;9.00;;;;;;;;;;5098386;28;20456;-73
2020/12/22 00:40:05;;;;;;;12.87;8.73;;;;;;;;;;5098419;28;20464;-73
2020/12/22 00:42:33;;;;;;;13.57;8.73;;;;;;;;;;5098186;28;20463;-73
2020/12/22 00:45:01;;;;;;;12.27;8.27;;;;;;;;;;5094659;28;20905;-73
2020/12/22 00:47:30;;;;;;;12.20;9.03;;;;;;;;;;5078300;28;20457;-73
2020/12/22 00:49:58;;;;;;;12.73;9.43;;;;;;;;;;5078227;28;20453;-73
2020/12/22 00:52:27;;;;;;;12.60;8.90;;;;;;;;;;5077570;28;20555;-73
2020/12/22 00:54:55;;;;;;;10.83;8.17;;;;;;;;;;5077497;28;20550;-73
2020/12/22 00:57:24;;;;;;;16.60;10.70;;;;;;;;;;5077512;28;20526;-73
2020/12/22 00:59:52;;;;;;;11.43;9.37;;;;;;;;;;5077777;28;20456;-73
2020/12/22 01:02:22;;;;;;;14.43;10.07;;;;;;;;;;5077514;28;20518;-73
2020/12/22 01:04:50;;;;;;;13.70;9.37;;;;;;;;;;5076892;28;20477;-74
2020/12/22 01:07:21;;;;;;;13.97;9.27;;;;;;;;;;5077665;28;20463;-73
2020/12/22 01:09:48;;;;;;;14.30;8.97;;;;;;;;;;5077254;28;20456;-73
2020/12/22 01:12:16;;;;;;;12.33;9.00;;;;;;;;;;5077452;28;20457;-73
2020/12/22 01:14:44;;;;;;;15.33;8.87;;;;;;;;;;5077822;28;20896;-73
2020/12/22 01:17:11;;;;;;;10.60;8.93;;;;;;;;;;5076866;28;20813;-71
2020/12/22 01:19:40;;;;;;;14.17;9.00;;;;;;;;;;5077430;28;20797;-73
2020/12/22 01:22:07;;;;;;;12.53;9.57;;;;;;;;;;5077813;28;20890;-73
2020/12/22 01:24:34;;;;;;;13.27;9.27;;;;;;;;;;5077290;28;20485;-75
2020/12/22 01:27:02;;;;;;;10.50;8.17;;;;;;;;;;5077420;28;20471;-74
2020/12/22 01:29:29;;;;;;;11.70;9.47;;;;;;;;;;5088184;28;20876;-73
2020/12/22 01:31:56;;;;;;;11.87;9.13;;;;;;;;;;5097785;28;20452;-73
2020/12/22 01:34:24;;;;;;;12.07;8.30;;;;;;;;;;5081631;28;20466;-73
2020/12/22 01:36:54;;;;;;;13.50;8.80;;;;;;;;;;5096738;28;20496;-73
2020/12/22 01:39:21;;;;;;;12.30;8.27;;;;;;;;;;5096938;28;20584;-74
2020/12/22 01:41:49;;;;;;;10.70;7.83;;;;;;;;;;5096841;28;20743;-74
2020/12/22 01:44:17;;;;;;;10.97;8.80;;;;;;;;;;5096840;28;21022;-73
2020/12/22 01:46:44;;;;;;;8.80;7.60;;;;;;;;;;5089404;28;20505;-73
2020/12/22 01:49:15;;;;;;;11.40;8.20;;;;;;;;;;5078697;28;20459;-73
2020/12/22 01:51:43;;;;;;;10.53;7.90;;;;;;;;;;5085762;28;20505;-73
2020/12/22 01:54:11;;;;;;;9.77;7.20;;;;;;;;;;5077085;28;21068;-73
2020/12/22 01:56:39;;;;;;;9.47;7.10;;;;;;;;;;5076834;28;21441;-72
2020/12/22 01:59:06;;;;;;;11.50;8.07;;;;;;;;;;5079798;28;20460;-73
2020/12/22 02:01:34;;;;;;;10.37;7.57;;;;;;;;;;5097144;28;20480;-73
2020/12/22 02:04:02;;;;;;;10.33;7.03;;;;;;;;;;5096628;28;20464;-72
2020/12/22 02:06:29;;;;;;;12.13;7.87;;;;;;;;;;5097037;28;20949;-72
2020/12/22 02:08:57;;;;;;;9.30;7.77;;;;;;;;;;5076376;28;20461;-72
2020/12/22 02:11:26;;;;;;;9.93;7.53;;;;;;;;;;5076735;28;20465;-72
2020/12/22 02:13:53;;;;;;;9.83;6.67;;;;;;;;;;5077337;28;20469;-73
2020/12/22 02:16:21;;;;;;;8.70;6.33;;;;;;;;;;5092403;28;20947;-72
2020/12/22 02:18:49;;;;;;;9.57;7.77;;;;;;;;;;5080198;28;20458;-72
2020/12/22 02:21:17;;;;;;;9.67;6.77;;;;;;;;;;5075594;28;20511;-72
2020/12/22 02:23:44;;;;;;;11.97;6.27;;;;;;;;;;5076566;28;20484;-73
2020/12/22 02:26:12;;;;;;;7.33;6.47;;;;;;;;;;5076286;28;20892;-73
2020/12/22 02:28:39;;;;;;;9.50;6.70;;;;;;;;;;5076223;28;20765;-73
2020/12/22 02:31:06;;;;;;;6.83;5.30;;;;;;;;;;5095542;28;20452;-73
2020/12/22 02:33:34;;;;;;;6.53;5.00;;;;;;;;;;5095954;28;20463;-73
2020/12/22 02:36:01;;;;;;;6.93;4.73;;;;;;;;;;5077895;28;20891;-73
2020/12/22 02:38:29;;;;;;;6.63;5.27;;;;;;;;;;5076080;28;20472;-73
2020/12/22 02:40:57;;;;;;;7.33;5.57;;;;;;;;;;5094272;28;20856;-73
2020/12/22 02:43:24;;;;;;;8.30;5.37;;;;;;;;;;5096442;28;20456;-72
2020/12/22 02:45:51;;;;;;;6.40;5.00;;;;;;;;;;5079033;28;20481;-73
2020/12/22 02:48:18;;;;;;;7.17;5.60;;;;;;;;;;5076476;28;20534;-72
2020/12/22 02:50:46;;;;;;;6.97;4.50;;;;;;;;;;5085867;28;20444;-72
2020/12/22 02:53:13;;;;;;;6.97;5.07;;;;;;;;;;5093230;28;20898;-72
2020/12/22 02:55:41;;;;;;;6.20;4.90;;;;;;;;;;5095210;28;20455;-72
2020/12/22 02:58:08;;;;;;;6.30;4.23;;;;;;;;;;5098906;28;20467;-73
2020/12/22 03:00:36;;;;;;;5.80;4.20;;;;;;;;;;5083901;28;20453;-72
2020/12/22 03:03:03;;;;;;;6.00;4.03;;;;;;;;;;5081039;28;20461;-72
2020/12/22 03:05:31;;;;;;;5.23;4.00;;;;;;;;;;5080172;28;20484;-73
2020/12/22 03:07:58;;;;;;;5.67;4.07;;;;;;;;;;5080449;28;20468;-73
2020/12/22 03:10:25;;;;;;;5.10;3.50;;;;;;;;;;5079813;28;20452;-73
2020/12/22 03:12:54;;;;;;;4.03;3.10;;;;;;;;;;5095633;28;20455;-73
2020/12/22 03:15:21;;;;;;;4.90;3.50;;;;;;;;;;5098107;28;20463;-73
2020/12/22 03:17:48;;;;;;;6.70;3.70;;;;;;;;;;5096460;28;20539;-73
2020/12/22 03:20:15;;;;;;;3.90;2.70;;;;;;;;;;5079985;28;20463;-73
2020/12/22 03:22:43;;;;;;;5.50;2.87;;;;;;;;;;5079850;28;20519;-73
2020/12/22 03:25:10;;;;;;;4.87;2.70;;;;;;;;;;5079691;28;20488;-72
2020/12/22 03:27:38;;;;;;;4.60;2.90;;;;;;;;;;5079706;28;20460;-73
2020/12/22 03:30:07;;;;;;;5.80;2.97;;;;;;;;;;5080270;28;20737;-73
2020/12/22 03:32:35;;;;;;;3.17;2.10;;;;;;;;;;5080665;28;20467;-72
2020/12/22 03:35:02;;;;;;;3.37;2.20;;;;;;;;;;5080687;28;20456;-72
2020/12/22 03:37:29;;;;;;;2.60;1.90;;;;;;;;;;5079506;28;20460;-72
2020/12/22 03:40:00;;;;;;;3.10;1.97;;;;;;;;;;5079226;28;20457;-73
2020/12/22 03:42:27;;;;;;;3.63;2.20;;;;;;;;;;5077914;28;20463;-72
2020/12/22 03:44:55;;;;;;;5.43;2.50;;;;;;;;;;5080072;28;20491;-73
2020/12/22 03:47:23;;;;;;;3.60;2.20;;;;;;;;;;5099189;28;20493;-72
2020/12/22 03:49:50;;;;;;;4.17;2.60;;;;;;;;;;5099358;28;20529;-72
2020/12/22 03:52:18;;;;;;;2.87;1.90;;;;;;;;;;5098346;28;20460;-72
2020/12/22 03:54:45;;;;;;;5.30;2.40;;;;;;;;;;5088135;28;20466;-73
2020/12/22 03:57:14;;;;;;;2.77;1.90;;;;;;;;;;5078946;28;20457;-72
2020/12/22 03:59:41;;;;;;;1.90;1.27;;;;;;;;;;5078366;28;20540;-73
2020/12/22 04:02:08;;;;;;;2.13;1.37;;;;;;;;;;5078682;28;20461;-72
2020/12/22 04:04:36;;;;;;;1.97;1.07;;;;;;;;;;5087319;28;20908;-72
2020/12/22 04:07:04;;;;;;;1.73;1.03;;;;;;;;;;5098858;28;20480;-72
2020/12/22 04:09:31;;;;;;;2.03;1.10;;;;;;;;;;5099142;28;20448;-73
2020/12/22 04:11:59;;;;;;;2.30;1.10;;;;;;;;;;5098495;28;20529;-73
2020/12/22 04:14:26;;;;;;;6.83;0.90;;;;;;;;;;5091463;28;20461;-73
2020/12/22 04:16:53;;;;;;;1.90;1.00;;;;;;;;;;5078485;28;20940;-72
2020/12/22 04:19:21;;;;;;;2.13;1.10;;;;;;;;;;5078147;28;20746;-72
2020/12/22 04:21:50;;;;;;;1.97;0.70;;;;;;;;;;5078525;28;20853;-73
2020/12/22 04:24:17;;;;;;;1.50;0.63;;;;;;;;;;5079956;28;20454;-73
2020/12/22 04:26:45;;;;;;;2.23;0.97;;;;;;;;;;5082173;28;20453;-72
2020/12/22 04:29:12;;;;;;;1.40;0.60;;;;;;;;;;5090246;28;20456;-73
2020/12/22 04:31:39;;;;;;;1.50;0.67;;;;;;;;;;5096257;28;20452;-73
2020/12/22 04:34:06;;;;;;;1.20;0.60;;;;;;;;;;5094472;28;20815;-72
2020/12/22 04:36:34;;;;;;;1.30;0.60;;;;;;;;;;5081886;28;20701;-72
2020/12/22 04:39:02;;;;;;;2.60;0.80;;;;;;;;;;5090008;28;20460;-73
2020/12/22 04:41:30;;;;;;;1.27;0.60;;;;;;;;;;5088041;28;20736;-73
2020/12/22 04:43:57;;;;;;;1.30;0.60;;;;;;;;;;5078700;28;20468;-73
2020/12/22 04:46:25;;;;;;;1.60;0.70;;;;;;;;;;5090568;28;20782;-73
2020/12/22 04:48:56;;;;;;;1.70;0.70;;;;;;;;;;5091159;28;20465;-73
2020/12/22 04:51:24;;;;;;;1.30;0.60;;;;;;;;;;5086097;28;20714;-73
2020/12/22 04:53:51;;;;;;;1.30;0.60;;;;;;;;;;5089949;28;20457;-71
2020/12/22 04:56:21;;;;;;;1.20;0.50;;;;;;;;;;5091984;28;20865;-72
2020/12/22 04:58:49;;;;;;;1.80;0.60;;;;;;;;;;5086623;28;20463;-73
2020/12/22 05:01:17;;;;;;;1.10;0.40;;;;;;;;;;5090537;28;20477;-73
2020/12/22 05:03:45;;;;;;;1.20;0.50;;;;;;;;;;5083290;28;20746;-73
2020/12/22 05:06:12;;;;;;;1.50;0.50;;;;;;;;;;5085507;28;21106;-73
2020/12/22 05:08:42;;;;;;;1.20;0.50;;;;;;;;;;5089580;28;21056;-75
2020/12/22 05:11:15;;;;;;;1.40;0.47;;;;;;;;;;5097207;28;20459;-73
2020/12/22 05:13:44;;;;;;;1.40;0.70;;;;;;;;;;5095982;28;20581;-74
2020/12/22 05:16:27;;;;;;;1.27;0.50;;;;;;;;;;5097108;28;20456;-73
2020/12/22 05:19:15;;;;;;;1.67;0.60;;;;;;;;;;5094671;28;20872;-73
2020/12/22 05:21:43;;;;;;;1.30;0.60;;;;;;;;;;5096717;28;20767;-73
2020/12/22 05:24:16;;;;;;;1.77;0.50;;;;;;;;;;5092732;28;20463;-73
2020/12/22 05:29:57;;;;;;;1.30;0.70;;;;;;;;;;5096994;28;20423;-73
2020/12/22 05:32:30;;;;;;;1.23;0.60;;;;;;;;;;5097064;28;20456;-72
2020/12/22 05:35:03;;;;;;;1.10;0.50;;;;;;;;;;5096419;28;20452;-72
2020/12/22 05:40:16;;;;;;;1.23;0.60;;;;;;;;;;5089432;28;20479;-72
2020/12/22 05:45:59;;;;;;;1.50;0.70;;;;;;;;;;4995165;28;20488;-72
2020/12/22 05:48:26;;;;;;;1.30;0.60;;;;;;;;;;5095994;28;20787;-72
2020/12/22 05:53:42;;;;;;;3.90;0.80;;;;;;;;;;5096244;28;20582;-72
2020/12/22 05:56:19;;;;;;;1.90;0.80;;;;;;;;;;5097042;28;20567;-73
2020/12/22 05:58:46;;;;;;;1.53;0.73;;;;;;;;;;5096125;28;20452;-72
2020/12/22 06:01:15;;;;;;;1.53;0.70;;;;;;;;;;5095718;28;20728;-72
2020/12/22 06:03:48;;;;;;;1.60;0.83;;;;;;;;;;5096667;28;20485;-73
2020/12/22 06:06:40;;;;;;;1.63;0.87;;;;;;;;;;5096143;28;20491;-73
2020/12/22 06:09:08;;;;;;;1.60;0.80;;;;;;;;;;5095928;28;20471;-72
2020/12/22 06:11:40;;;;;;;2.10;0.80;;;;;;;;;;5096395;28;20464;-72
2020/12/22 06:14:07;;;;;;;1.87;1.20;;;;;;;;;;5095347;28;20456;-73
2020/12/22 06:19:38;;;;;;;2.20;1.20;;;;;;;;;;5095245;28;20447;-72
2020/12/22 06:22:05;;;;;;;1.80;1.23;;;;;;;;;;5095937;28;20745;-72
2020/12/22 06:24:32;;;;;;;2.10;1.23;;;;;;;;;;5095994;28;20876;-73
2020/12/22 06:27:01;;;;;;;2.37;1.40;;;;;;;;;;5095558;28;20464;-72
2020/12/22 06:32:32;;;;;;;2.80;2.23;;;;;;;;;;5090657;28;20463;-72
2020/12/22 06:35:05;;;;;;;2.40;1.80;;;;;;;;;;5096080;28;20464;-72
2020/12/22 06:37:41;;;;;;;3.37;2.27;;;;;;;;;;5096015;28;20463;-72
2020/12/22 06:40:09;;;;;;;4.50;2.33;;;;;;;;;;5096541;28;20459;-72
2020/12/22 06:42:52;;;;;;;3.67;2.50;;;;;;;;;;5096376;28;20713;-74
2020/12/22 06:45:32;;;;;;;3.10;2.43;;;;;;;;;;5094972;28;20488;-73
2020/12/22 06:48:00;;;;;;;4.17;2.00;;;;;;;;;;5075370;28;20469;-73
2020/12/22 06:50:37;;;;;;;2.93;2.00;;;;;;;;;;5074937;28;20460;-73
2020/12/22 06:53:47;;;;;;;3.23;2.50;;;;;;;;;;5074875;28;20797;-73
2020/12/22 06:56:14;;;;;;;2.93;2.43;;;;;;;;;;5036578;28;20448;-72
2020/12/22 06:58:42;;;;;;;3.23;2.60;;;;;;;;;;5074305;28;20464;-73
2020/12/22 07:01:28;;;;;;;4.73;2.40;;;;;;;;;;5074458;28;20544;-73
2020/12/22 07:04:11;;;;;;;3.67;2.80;;;;;;;;;;5074581;28;20534;-73
2020/12/22 07:07:01;;;;;;;3.40;2.70;;;;;;;;;;5073841;28;20484;-72
2020/12/22 07:09:29;;;;;;;6.27;3.00;;;;;;;;;;5070796;28;20453;-72
2020/12/22 07:12:07;;;;;;;2.23;1.57;;;;;;;;;;5074221;28;20446;-72
2020/12/22 07:14:34;;;;;;;3.33;2.20;;;;;;;;;;5075241;28;20449;-72
2020/12/22 07:17:03;;;;;;;3.10;2.60;;;;;;;;;;5075102;28;20468;-72
2020/12/22 07:19:35;;;;;;;2.73;2.13;;;;;;;;;;5073836;28;20869;-72
2020/12/22 07:22:03;;;;;;;4.70;1.97;;;;;;;;;;5074380;28;20478;-72
2020/12/22 07:24:31;;;;;;;3.33;3.03;;;;;;;;;;5075322;28;20468;-72
2020/12/22 07:27:04;;;;;;;3.23;2.13;;;;;;;;;;5073737;28;20591;-72
2020/12/22 07:29:47;;;;;;;4.10;2.03;;;;;;;;;;5073876;28;20464;-72
2020/12/22 07:32:24;;;;;;;2.77;2.20;;;;;;;;;;5057765;28;20494;-73
2020/12/22 07:35:19;;;;;;;2.20;1.43;;;;;;;;;;5074325;28;20941;-73
2020/12/22 07:37:52;;;;;;;3.50;2.03;;;;;;;;;;5074334;28;20496;-73
2020/12/22 07:40:19;;;;;;;3.47;2.23;;;;;;;;;;5086159;28;20455;-73
2020/12/22 07:43:03;;;;;;;2.73;1.80;;;;;;;;;;5099109;28;20459;-73
2020/12/22 07:45:30;;;;;;;2.90;2.20;;;;;;;;;;5096563;28;20731;-73
2020/12/22 07:47:57;;;;;;;2.07;1.50;;;;;;;;;;5079839;28;20469;-73
2020/12/22 07:50:27;;;;;;;2.23;1.73;;;;;;;;;;5079373;28;20465;-73
2020/12/22 07:52:57;;;;;;;2.60;1.47;;;;;;;;;;5078267;28;20747;-73
2020/12/22 07:55:47;;;;;;;3.50;1.93;;;;;;;;;;5083139;28;20826;-73
2020/12/22 07:58:30;;;;;;;2.40;1.40;;;;;;;;;;5082381;28;20464;-73
2020/12/22 08:01:01;;;;;;;1.83;1.23;;;;;;;;;;5089231;28;20524;-73
2020/12/22 08:03:33;;;;;;;2.93;1.37;;;;;;;;;;5086458;28;20747;-73
2020/12/22 08:06:22;;;;;;;2.40;1.13;;;;;;;;;;5098117;28;20582;-73
2020/12/22 08:09:10;;;;;;;1.97;1.10;;;;;;;;;;5096482;28;20468;-73
2020/12/22 08:11:38;;;;;;;2.30;1.07;;;;;;;;;;5098426;28;20833;-73
2020/12/22 08:14:05;;;;;;;1.67;0.90;;;;;;;;;;5098817;28;20471;-73
2020/12/22 08:16:34;;;;;;;1.60;0.80;;;;;;;;;;5098258;28;20462;-73
2020/12/22 08:19:07;;;;;;;1.60;1.10;;;;;;;;;;5097266;28;20575;-73
2020/12/22 08:21:38;;;;;;;1.30;0.70;;;;;;;;;;5097029;28;20463;-73
2020/12/22 08:24:05;;;;;;;1.60;0.70;;;;;;;;;;5097854;28;21823;-75
2020/12/22 08:26:33;;;;;;;1.67;0.87;;;;;;;;;;5096822;28;20488;-74
2020/12/22 08:29:03;;;;;;;1.93;1.10;;;;;;;;;;5096246;28;20732;-73
2020/12/22 08:31:34;;;;;;;1.40;0.70;;;;;;;;;;5096180;28;20765;-73
2020/12/22 08:34:07;;;;;;;2.10;0.90;;;;;;;;;;5097408;28;20456;-73
2020/12/22 08:36:35;;;;;;;1.77;0.80;;;;;;;;;;5096582;28;20471;-73
2020/12/22 08:39:22;;;;;;;1.60;0.60;;;;;;;;;;5092230;28;20464;-73
2020/12/22 08:41:50;;;;;;;3.33;0.70;;;;;;;;;;5096841;28;20526;-74
2020/12/22 08:44:18;;;;;;;1.67;0.80;;;;;;;;;;5097988;28;20452;-73
2020/12/22 08:46:45;;;;;;;2.70;1.30;;;;;;;;;;5093448;28;20501;-74
2020/12/22 08:49:15;;;;;;;1.70;0.87;;;;;;;;;;5097534;28;20553;-73
2020/12/22 08:51:43;;;;;;;2.10;0.90;;;;;;;;;;5095565;28;20525;-73
2020/12/22 08:54:11;;;;;;;1.40;0.70;;;;;;;;;;5082398;28;20465;-73
2020/12/22 08:56:41;;;;;;;2.00;0.87;;;;;;;;;;5083878;28;20467;-73
2020/12/22 08:59:09;;;;;;;1.57;0.90;;;;;;;;;;5096576;28;20726;-74
2020/12/22 09:01:41;;;;;;;2.53;0.90;;;;;;;;;;5097055;28;20456;-74
2020/12/22 09:04:11;;;;;;;1.80;0.80;;;;;;;;;;5097259;28;20559;-75
2020/12/22 09:06:43;;;;;;;1.40;0.70;;;;;;;;;;5095820;28;20559;-75
2020/12/22 09:09:12;;;;;;;1.73;0.90;;;;;;;;;;5095571;28;20966;-73
2020/12/22 09:11:42;;;;;;;2.90;1.03;;;;;;;;;;5097436;28;20460;-73
2020/12/22 09:14:11;;;;;;;2.53;1.37;;;;;;;;;;5083776;28;20487;-74
2020/12/22 09:16:44;;;;;;;2.00;0.80;;;;;;;;;;5076914;28;20488;-74
2020/12/22 09:19:12;;;;;;;3.20;1.00;;;;;;;;;;5077419;28;20817;-74
2020/12/22 09:21:39;;;;;;;1.70;0.97;;;;;;;;;;5096388;28;20879;-73
2020/12/22 09:24:06;;;;;;;1.53;0.70;;;;;;;;;;5091440;28;20563;-73
2020/12/22 09:26:35;;;;;;;2.23;1.07;;;;;;;;;;5077827;28;20488;-74
2020/12/22 09:29:03;;;;;;;1.77;0.90;;;;;;;;;;5075825;28;20465;-73
2020/12/22 09:31:30;;;;;;;5.20;1.20;;;;;;;;;;5076595;28;20445;-73
2020/12/22 09:33:58;;;;;;;3.10;0.97;;;;;;;;;;5074182;28;20534;-73
2020/12/22 09:36:25;;;;;;;4.00;1.00;;;;;;;;;;5075104;28;20467;-74
2020/12/22 09:38:52;;;;;;;1.40;0.60;;;;;;;;;;5075691;28;20459;-73
2020/12/22 09:41:20;;;;;;;1.47;0.63;;;;;;;;;;5076445;28;20464;-74
2020/12/22 09:43:47;;;;;;;3.40;0.73;;;;;;;;;;5075252;28;20534;-74
2020/12/22 09:46:18;;;;;;;4.30;1.70;;;;;;;;;;5075128;28;20534;-74
2020/12/22 09:48:45;;;;;;;8.63;2.23;;;;;;;;;;5075941;28;20453;-74
2020/12/22 09:51:15;;;;;;;3.43;1.47;;;;;;;;;;5075514;28;20531;-74
2020/12/22 09:53:43;;;;;;;7.73;5.33;;;;;;;;;;5074379;28;20730;-73
2020/12/22 09:56:10;;;;;;;4.30;2.53;;;;;;;;;;5071656;28;20457;-73
2020/12/22 09:58:38;;;;;;;3.13;1.87;;;;;;;;;;5074820;28;20550;-73
2020/12/22 10:01:05;;;;;;;2.40;1.00;;;;;;;;;;5074186;28;20539;-73
2020/12/22 10:03:34;;;;;;;4.23;1.67;;;;;;;;;;5075054;28;20469;-73
2020/12/22 10:06:01;;;;;;;5.43;4.33;;;;;;;;;;5075929;28;20528;-73
2020/12/22 10:08:28;;;;;;;6.47;3.10;;;;;;;;;;5074892;28;20567;-72
2020/12/22 10:10:56;;;;;;;4.10;2.30;;;;;;;;;;5074340;28;20471;-73
2020/12/22 10:13:23;;;;;;;4.10;2.47;;;;;;;;;;5074895;28;20456;-72
2020/12/22 10:15:54;;;;;;;3.97;1.80;;;;;;;;;;5075102;28;20469;-73
2020/12/22 10:18:21;;;;;;;2.93;1.60;;;;;;;;;;5074566;28;20464;-73
2020/12/22 10:20:50;;;;;;;8.50;4.63;;;;;;;;;;5086011;28;20452;-73
2020/12/22 10:23:17;;;;;;;2.70;1.50;;;;;;;;;;5096783;28;20440;-73
2020/12/22 10:25:45;;;;;;;1.90;0.90;;;;;;;;;;5096000;28;20514;-73
2020/12/22 10:28:13;;;;;;;5.70;3.00;;;;;;;;;;5095958;28;20609;-73
2020/12/22 10:30:43;;;;;;;1.70;0.80;;;;;;;;;;5094990;28;20468;-74
2020/12/22 10:33:10;;;;;;;1.43;0.60;;;;;;;;;;5095134;28;20494;-73
2020/12/22 10:35:38;;;;;;;1.90;0.67;;;;;;;;;;5094324;28;20468;-73
2020/12/22 10:38:06;;;;;;;1.40;0.70;;;;;;;;;;5095057;28;20452;-73
2020/12/22 10:40:34;;;;;;;2.00;0.73;;;;;;;;;;5095260;28;20517;-73
2020/12/22 10:43:01;;;;;;;1.87;0.97;;;;;;;;;;5095012;28;20451;-73
2020/12/22 10:45:29;;;;;;;1.70;0.87;;;;;;;;;;5093403;28;20531;-72
2020/12/22 10:47:56;;;;;;;1.87;1.10;;;;;;;;;;5094444;28;20548;-74
2020/12/22 10:50:24;;;;;;;2.50;1.20;;;;;;;;;;5079667;28;20464;-74
2020/12/22 10:52:51;;;;;;;2.63;0.93;;;;;;;;;;5081228;28;20494;-73
2020/12/22 10:55:20;;;;;;;1.70;0.80;;;;;;;;;;5093283;28;20475;-74
2020/12/22 10:57:48;;;;;;;1.77;1.33;;;;;;;;;;5078934;28;20457;-74
2020/12/22 11:00:17;;;;;;;1.63;0.80;;;;;;;;;;5085431;28;20472;-74
2020/12/22 11:02:45;;;;;;;1.67;0.90;;;;;;;;;;5095248;28;20456;-73
2020/12/22 11:05:13;;;;;;;1.77;0.93;;;;;;;;;;5093866;28;20499;-73
2020/12/22 11:07:44;;;;;;;3.33;1.00;;;;;;;;;;5093833;28;20452;-74
2020/12/22 11:10:15;;;;;;;2.23;0.80;;;;;;;;;;5094547;28;20613;-73
2020/12/22 11:12:44;;;;;;;2.67;1.50;;;;;;;;;;5093829;28;20516;-73
2020/12/22 11:15:11;;;;;;;1.87;0.90;;;;;;;;;;5088773;28;20452;-73
2020/12/22 11:17:39;;;;;;;1.70;0.80;;;;;;;;;;5078118;28;20452;-73
2020/12/22 11:20:07;;;;;;;2.20;0.97;;;;;;;;;;5095971;28;20460;-73
2020/12/22 11:22:37;;;;;;;1.70;0.90;;;;;;;;;;5098440;28;20443;-73
2020/12/22 11:25:07;;;;;;;1.63;0.60;;;;;;;;;;5099341;28;20471;-73
2020/12/22 11:27:34;;;;;;;2.27;1.20;;;;;;;;;;5099456;28;20492;-74
2020/12/22 11:30:03;;;;;;;2.73;1.00;;;;;;;;;;5097469;28;20529;-73
2020/12/22 11:32:30;;;;;;;2.33;0.70;;;;;;;;;;5077784;28;20468;-73
2020/12/22 11:34:58;;;;;;;2.47;0.70;;;;;;;;;;5078280;28;20469;-73
2020/12/22 11:37:28;;;;;;;1.87;0.80;;;;;;;;;;5082500;28;20463;-75
2020/12/22 11:39:56;;;;;;;1.90;0.80;;;;;;;;;;5093101;28;20464;-74
2020/12/22 11:42:24;;;;;;;1.80;0.77;;;;;;;;;;5096344;28;20452;-74
2020/12/22 11:44:54;;;;;;;1.80;0.60;;;;;;;;;;5097212;28;20460;-74
2020/12/22 11:47:22;;;;;;;1.80;0.83;;;;;;;;;;5096663;28;20456;-73
2020/12/22 11:49:50;;;;;;;2.90;0.90;;;;;;;;;;5096513;28;20606;-73
2020/12/22 11:52:18;;;;;;;1.73;0.70;;;;;;;;;;5097441;28;20475;-73
2020/12/22 11:54:48;;;;;;;3.00;0.77;;;;;;;;;;5087073;28;20468;-72
2020/12/22 11:57:15;;;;;;;1.90;0.70;;;;;;;;;;5077573;28;20476;-72
2020/12/22 11:59:45;;;;;;;6.93;0.90;;;;;;;;;;5077350;28;20460;-72
2020/12/22 12:02:30;;;;;;;2.27;0.70;;;;;;;;;;5076535;28;20877;-73
2020/12/22 12:04:59;;;;;;;1.50;0.80;;;;;;;;;;5076157;28;20456;-73
2020/12/22 12:07:26;;;;;;;1.37;0.67;;;;;;;;;;5094597;28;20455;-72
2020/12/22 12:09:54;;;;;;;1.20;0.50;;;;;;;;;;5097210;28;20563;-73
2020/12/22 12:12:22;;;;;;;1.27;0.53;;;;;;;;;;5097368;28;20853;-73
2020/12/22 12:14:49;;;;;;;1.27;0.60;;;;;;;;;;5096728;28;20967;-71
2020/12/22 12:17:17;;;;;;;1.87;0.50;;;;;;;;;;5095844;28;20452;-73
2020/12/22 12:19:45;;;;;;;1.90;0.50;;;;;;;;;;5096399;28;20464;-72
2020/12/22 12:22:13;;;;;;;1.40;0.50;;;;;;;;;;5096301;28;20460;-73
2020/12/22 12:24:40;;;;;;;1.20;0.50;;;;;;;;;;5096069;28;20464;-73
2020/12/22 12:27:07;;;;;;;1.30;0.50;;;;;;;;;;5096669;28;20488;-72
2020/12/22 12:29:35;;;;;;;2.00;0.80;;;;;;;;;;5093798;28;20796;-73
2020/12/22 12:32:10;;;;;;;3.90;1.10;;;;;;;;;;5089259;28;20969;-72
2020/12/22 12:34:38;;;;;;;1.60;0.93;;;;;;;;;;5078551;28;20459;-73
2020/12/22 12:37:06;;;;;;;2.53;0.90;;;;;;;;;;5078383;28;20503;-72
2020/12/22 12:39:39;;;;;;;3.37;0.90;;;;;;;;;;5077039;28;20642;-72
2020/12/22 12:42:11;;;;;;;3.50;0.80;;;;;;;;;;5076457;28;20473;-73
2020/12/22 12:44:38;;;;;;;2.03;0.90;;;;;;;;;;5073964;28;20457;-72
2020/12/22 12:47:11;;;;;;;3.87;1.40;;;;;;;;;;5076815;28;20493;-72
2020/12/22 12:49:41;;;;;;;4.97;1.73;;;;;;;;;;5079977;28;20832;-72
2020/12/22 12:52:09;;;;;;;2.20;1.30;;;;;;;;;;5081050;28;20499;-73
2020/12/22 12:54:37;;;;;;;2.87;1.80;;;;;;;;;;5082494;28;20456;-72
2020/12/22 12:57:05;;;;;;;3.50;1.70;;;;;;;;;;5096981;28;20568;-73
2020/12/22 12:59:33;;;;;;;3.10;1.20;;;;;;;;;;5096402;28;20484;-71
2020/12/22 13:02:01;;;;;;;2.23;0.90;;;;;;;;;;5096273;28;20460;-71
2020/12/22 13:04:28;;;;;;;3.00;1.70;;;;;;;;;;5095093;28;20452;-73
2020/12/22 13:06:56;;;;;;;10.07;2.23;;;;;;;;;;5094785;28;20578;-71
2020/12/22 13:09:23;;;;;;;2.07;1.13;;;;;;;;;;5096353;28;20828;-72
2020/12/22 13:11:54;;;;;;;6.03;1.73;;;;;;;;;;5087112;28;20500;-72
2020/12/22 13:14:22;;;;;;;4.87;1.30;;;;;;;;;;5076293;28;20445;-72
2020/12/22 13:16:49;;;;;;;3.33;1.50;;;;;;;;;;5076245;28;20464;-72
2020/12/22 13:19:17;;;;;;;3.20;1.57;;;;;;;;;;5075992;28;20490;-72
2020/12/22 13:21:47;;;;;;;3.87;1.93;;;;;;;;;;5076877;28;20461;-73
2020/12/22 13:24:19;;;;;;;5.37;1.70;;;;;;;;;;5077864;28;20755;-72
2020/12/22 13:26:47;;;;;;;2.90;1.90;;;;;;;;;;5073645;28;20485;-72
2020/12/22 13:29:16;;;;;;;3.03;1.40;;;;;;;;;;5076474;28;20543;-72
2020/12/22 13:31:52;;;;;;;1.97;0.83;;;;;;;;;;5075420;28;20850;-72
2020/12/22 13:34:23;;;;;;;5.17;1.60;;;;;;;;;;5076987;28;21046;-73
2020/12/22 13:36:55;;;;;;;2.70;1.43;;;;;;;;;;5075543;28;20546;-73
2020/12/22 13:39:23;;;;;;;3.03;1.30;;;;;;;;;;5075550;28;20461;-72
2020/12/22 13:41:53;;;;;;;3.07;1.20;;;;;;;;;;5087103;28;20452;-73
2020/12/22 13:44:22;;;;;;;4.13;2.07;;;;;;;;;;5097065;28;20491;-73
2020/12/22 13:46:50;;;;;;;5.33;1.77;;;;;;;;;;5090859;28;20497;-72
2020/12/22 13:49:20;;;;;;;2.70;1.27;;;;;;;;;;5076954;28;20461;-72
2020/12/22 13:51:47;;;;;;;3.37;1.00;;;;;;;;;;5088463;28;20525;-72
2020/12/22 13:54:14;;;;;;;6.63;1.30;;;;;;;;;;5079100;28;20461;-72
2020/12/22 13:56:42;;;;;;;2.80;1.43;;;;;;;;;;5075821;28;20472;-72
2020/12/22 13:59:09;;;;;;;5.63;2.33;;;;;;;;;;5078467;28;20880;-72
2020/12/22 14:01:37;;;;;;;7.73;1.40;;;;;;;;;;5095882;28;20448;-72
2020/12/22 14:04:05;;;;;;;3.60;1.33;;;;;;;;;;5091095;28;20506;-72
2020/12/22 14:06:33;;;;;;;4.27;1.40;;;;;;;;;;5075603;28;20485;-72
2020/12/22 14:09:00;;;;;;;2.53;1.07;;;;;;;;;;5093671;28;20464;-72
2020/12/22 14:11:28;;;;;;;3.00;1.37;;;;;;;;;;5094536;28;20726;-71
2020/12/22 14:13:55;;;;;;;4.70;1.87;;;;;;;;;;5094551;28;20513;-71
2020/12/22 14:16:22;;;;;;;6.07;1.30;;;;;;;;;;5093784;28;20486;-71
2020/12/22 14:18:51;;;;;;;6.10;1.20;;;;;;;;;;5093936;28;20815;-72
2020/12/22 14:21:18;;;;;;;2.40;1.10;;;;;;;;;;5094647;28;20705;-72
2020/12/22 14:23:46;;;;;;;3.40;0.93;;;;;;;;;;5095172;28;20530;-72
2020/12/22 14:26:13;;;;;;;5.03;1.43;;;;;;;;;;5094238;28;20781;-72
2020/12/22 14:28:41;;;;;;;1.60;0.70;;;;;;;;;;5094883;28;20856;-72
2020/12/22 14:31:09;;;;;;;2.30;1.03;;;;;;;;;;5094111;28;20456;-72
2020/12/22 14:33:36;;;;;;;5.77;1.33;;;;;;;;;;5092650;28;20460;-72
2020/12/22 14:36:06;;;;;;;3.47;0.90;;;;;;;;;;5095150;28;20734;-72
2020/12/22 14:38:34;;;;;;;5.53;1.30;;;;;;;;;;5093698;28;21019;-72
2020/12/22 14:41:01;;;;;;;4.67;1.10;;;;;;;;;;5091897;28;20452;-72
2020/12/22 14:43:28;;;;;;;4.27;1.33;;;;;;;;;;5094492;28;20460;-72
2020/12/22 14:45:56;;;;;;;5.83;3.13;;;;;;;;;;5082559;28;20919;-72
2020/12/22 14:48:23;;;;;;;3.00;1.27;;;;;;;;;;5093044;28;20451;-72
2020/12/22 14:50:51;;;;;;;4.00;1.30;;;;;;;;;;5094325;28;20766;-72
2020/12/22 14:53:19;;;;;;;2.03;0.97;;;;;;;;;;5094577;28;20513;-71
2020/12/22 14:55:46;;;;;;;4.07;1.10;;;;;;;;;;5094458;28;20460;-72
2020/12/22 14:58:14;;;;;;;3.37;1.07;;;;;;;;;;5095054;28;20735;-71
2020/12/22 15:00:41;;;;;;;4.70;1.10;;;;;;;;;;5095638;28;20581;-71
2020/12/22 15:03:08;;;;;;;1.63;0.70;;;;;;;;;;5094288;28;20513;-71
2020/12/22 15:05:35;;;;;;;4.23;1.53;;;;;;;;;;5092082;28;20934;-71
2020/12/22 15:08:05;;;;;;;2.87;0.93;;;;;;;;;;5093886;28;20718;-71
2020/12/22 15:10:33;;;;;;;2.40;0.80;;;;;;;;;;5093312;28;20456;-71